sensor_id;sensor_type;location;lat;lon;timestamp;P1;durP1;ratioP1;P2;durP2;ratioP2
11431;SDS011;5772;50.940;6.782;2023-04-07T00:00:57;62.47;;;58.90;;
11431;SDS011;5772;50.940;6.782;2023-04-07T00:03:22;60.20;;;56.73;;
11431;SDS011;5772;50.940;6.782;2023-04-07T00:05:48;62.17;;;58.53;;
11431;SDS011;5772;50.940;6.782;2023-04-07T00:08:13;64.03;;;60.57;;
11431;SDS011;5772;50.940;6.782;2023-04-07T00:10:39;59.70;;;56.20;;
11431;SDS011;5772;50.940;6.782;2023-04-07T00:13:04;60.50;;;57.13;;
11431;SDS011;5772;50.940;6.782;2023-04-07T00:15:29;56.83;;;53.73;;
11431;SDS011;5772;50.940;6.782;2023-04-07T00:17:56;52.97;;;49.77;;
11431;SDS011;5772;50.940;6.782;2023-04-07T00:20:22;52.80;;;49.40;;
11431;SDS011;5772;50.940;6.782;2023-04-07T00:22:47;48.00;;;45.27;;
11431;SDS011;5772;50.940;6.782;2023-04-07T00:25:12;48.27;;;45.67;;
11431;SDS011;5772;50.940;6.782;2023-04-07T00:27:38;44.93;;;41.97;;
11431;SDS011;5772;50.940;6.782;2023-04-07T00:30:03;45.43;;;42.17;;
11431;SDS011;5772;50.940;6.782;2023-04-07T00:32:30;45.93;;;42.77;;
11431;SDS011;5772;50.940;6.782;2023-04-07T00:34:56;47.37;;;44.40;;
11431;SDS011;5772;50.940;6.782;2023-04-07T00:37:22;47.10;;;44.20;;
11431;SDS011;5772;50.940;6.782;2023-04-07T00:39:47;42.57;;;39.83;;
11431;SDS011;5772;50.940;6.782;2023-04-07T00:42:13;41.80;;;39.10;;
11431;SDS011;5772;50.940;6.782;2023-04-07T00:44:38;42.90;;;40.03;;
11431;SDS011;5772;50.940;6.782;2023-04-07T00:47:03;46.60;;;43.50;;
11431;SDS011;5772;50.940;6.782;2023-04-07T00:49:29;49.70;;;46.40;;
11431;SDS011;5772;50.940;6.782;2023-04-07T00:51:56;59.13;;;55.67;;
11431;SDS011;5772;50.940;6.782;2023-04-07T00:54:22;60.40;;;57.03;;
11431;SDS011;5772;50.940;6.782;2023-04-07T00:56:47;43.53;;;40.80;;
11431;SDS011;5772;50.940;6.782;2023-04-07T00:59:13;42.53;;;39.30;;
11431;SDS011;5772;50.940;6.782;2023-04-07T01:01:39;48.93;;;45.97;;
11431;SDS011;5772;50.940;6.782;2023-04-07T01:04:08;57.17;;;53.77;;
11431;SDS011;5772;50.940;6.782;2023-04-07T01:06:37;65.27;;;61.77;;
11431;SDS011;5772;50.940;6.782;2023-04-07T01:09:06;68.70;;;64.97;;
11431;SDS011;5772;50.940;6.782;2023-04-07T01:11:36;67.77;;;63.63;;
11431;SDS011;5772;50.940;6.782;2023-04-07T01:14:05;71.67;;;67.07;;
11431;SDS011;5772;50.940;6.782;2023-04-07T01:16:31;66.00;;;62.10;;
11431;SDS011;5772;50.940;6.782;2023-04-07T01:19:00;67.10;;;63.10;;
11431;SDS011;5772;50.940;6.782;2023-04-07T01:21:31;65.93;;;62.13;;
11431;SDS011;5772;50.940;6.782;2023-04-07T01:24:03;59.53;;;55.43;;
11431;SDS011;5772;50.940;6.782;2023-04-07T01:26:38;61.23;;;57.07;;
11431;SDS011;5772;50.940;6.782;2023-04-07T01:31:54;53.73;;;49.27;;
11431;SDS011;5772;50.940;6.782;2023-04-07T01:34:19;57.10;;;53.20;;
11431;SDS011;5772;50.940;6.782;2023-04-07T01:36:46;59.83;;;55.83;;
11431;SDS011;5772;50.940;6.782;2023-04-07T01:39:12;66.47;;;62.33;;
11431;SDS011;5772;50.940;6.782;2023-04-07T01:41:38;72.50;;;67.80;;
11431;SDS011;5772;50.940;6.782;2023-04-07T01:44:05;78.80;;;73.27;;
11431;SDS011;5772;50.940;6.782;2023-04-07T01:46:32;78.00;;;73.17;;
11431;SDS011;5772;50.940;6.782;2023-04-07T01:48:58;80.37;;;74.67;;
11431;SDS011;5772;50.940;6.782;2023-04-07T01:51:23;77.47;;;72.57;;
11431;SDS011;5772;50.940;6.782;2023-04-07T01:53:49;77.87;;;72.57;;
11431;SDS011;5772;50.940;6.782;2023-04-07T01:56:14;76.80;;;71.33;;
11431;SDS011;5772;50.940;6.782;2023-04-07T01:58:40;78.93;;;73.33;;
11431;SDS011;5772;50.940;6.782;2023-04-07T02:01:05;73.90;;;69.17;;
11431;SDS011;5772;50.940;6.782;2023-04-07T02:03:33;76.83;;;71.53;;
11431;SDS011;5772;50.940;6.782;2023-04-07T02:06:03;67.90;;;63.47;;
11431;SDS011;5772;50.940;6.782;2023-04-07T02:08:31;68.60;;;63.40;;
11431;SDS011;5772;50.940;6.782;2023-04-07T02:10:56;68.03;;;62.73;;
11431;SDS011;5772;50.940;6.782;2023-04-07T02:13:22;64.20;;;59.80;;
11431;SDS011;5772;50.940;6.782;2023-04-07T02:15:48;62.23;;;57.33;;
11431;SDS011;5772;50.940;6.782;2023-04-07T02:18:14;61.47;;;57.17;;
11431;SDS011;5772;50.940;6.782;2023-04-07T02:20:41;63.07;;;58.30;;
11431;SDS011;5772;50.940;6.782;2023-04-07T02:23:08;61.20;;;56.50;;
11431;SDS011;5772;50.940;6.782;2023-04-07T02:25:33;58.33;;;53.63;;
11431;SDS011;5772;50.940;6.782;2023-04-07T02:27:59;54.57;;;50.30;;
11431;SDS011;5772;50.940;6.782;2023-04-07T02:30:25;59.70;;;55.13;;
11431;SDS011;5772;50.940;6.782;2023-04-07T02:32:50;56.87;;;52.63;;
11431;SDS011;5772;50.940;6.782;2023-04-07T02:35:16;59.87;;;54.53;;
11431;SDS011;5772;50.940;6.782;2023-04-07T02:37:42;55.13;;;50.63;;
11431;SDS011;5772;50.940;6.782;2023-04-07T02:40:08;54.83;;;50.63;;
11431;SDS011;5772;50.940;6.782;2023-04-07T02:42:34;53.60;;;49.30;;
11431;SDS011;5772;50.940;6.782;2023-04-07T02:44:59;54.40;;;50.23;;
11431;SDS011;5772;50.940;6.782;2023-04-07T02:47:24;55.17;;;51.07;;
11431;SDS011;5772;50.940;6.782;2023-04-07T02:49:50;53.27;;;48.80;;
11431;SDS011;5772;50.940;6.782;2023-04-07T02:52:15;57.40;;;52.57;;
11431;SDS011;5772;50.940;6.782;2023-04-07T02:54:42;52.03;;;47.33;;
11431;SDS011;5772;50.940;6.782;2023-04-07T02:57:07;50.00;;;45.33;;
11431;SDS011;5772;50.940;6.782;2023-04-07T02:59:33;52.10;;;47.43;;
11431;SDS011;5772;50.940;6.782;2023-04-07T03:01:58;50.73;;;45.90;;
11431;SDS011;5772;50.940;6.782;2023-04-07T03:04:23;47.17;;;43.07;;
11431;SDS011;5772;50.940;6.782;2023-04-07T03:06:49;52.10;;;47.03;;
11431;SDS011;5772;50.940;6.782;2023-04-07T03:09:14;48.30;;;43.67;;
11431;SDS011;5772;50.940;6.782;2023-04-07T03:11:41;50.03;;;45.50;;
11431;SDS011;5772;50.940;6.782;2023-04-07T03:14:06;52.90;;;48.40;;
11431;SDS011;5772;50.940;6.782;2023-04-07T03:16:32;55.50;;;50.73;;
11431;SDS011;5772;50.940;6.782;2023-04-07T03:18:57;55.27;;;50.23;;
11431;SDS011;5772;50.940;6.782;2023-04-07T03:21:22;55.17;;;50.37;;
11431;SDS011;5772;50.940;6.782;2023-04-07T03:23:48;59.40;;;54.17;;
11431;SDS011;5772;50.940;6.782;2023-04-07T03:26:13;62.80;;;57.83;;
11431;SDS011;5772;50.940;6.782;2023-04-07T03:28:40;62.03;;;57.17;;
11431;SDS011;5772;50.940;6.782;2023-04-07T03:31:05;69.23;;;63.97;;
11431;SDS011;5772;50.940;6.782;2023-04-07T03:33:31;66.70;;;61.70;;
11431;SDS011;5772;50.940;6.782;2023-04-07T03:35:56;72.03;;;66.77;;
11431;SDS011;5772;50.940;6.782;2023-04-07T03:38:21;79.43;;;74.07;;
11431;SDS011;5772;50.940;6.782;2023-04-07T03:40:47;80.03;;;74.13;;
11431;SDS011;5772;50.940;6.782;2023-04-07T03:43:12;75.63;;;70.40;;
11431;SDS011;5772;50.940;6.782;2023-04-07T03:45:39;75.93;;;70.37;;
11431;SDS011;5772;50.940;6.782;2023-04-07T03:48:04;78.80;;;72.97;;
11431;SDS011;5772;50.940;6.782;2023-04-07T03:50:30;74.67;;;69.20;;
11431;SDS011;5772;50.940;6.782;2023-04-07T03:52:55;75.93;;;70.57;;
11431;SDS011;5772;50.940;6.782;2023-04-07T03:55:21;81.00;;;75.67;;
11431;SDS011;5772;50.940;6.782;2023-04-07T03:57:46;76.77;;;70.73;;
11431;SDS011;5772;50.940;6.782;2023-04-07T04:00:12;81.73;;;75.77;;
11431;SDS011;5772;50.940;6.782;2023-04-07T04:02:39;78.10;;;72.13;;
11431;SDS011;5772;50.940;6.782;2023-04-07T04:05:04;76.90;;;70.57;;
11431;SDS011;5772;50.940;6.782;2023-04-07T04:07:30;69.40;;;63.90;;
11431;SDS011;5772;50.940;6.782;2023-04-07T04:09:55;66.40;;;60.33;;
11431;SDS011;5772;50.940;6.782;2023-04-07T04:12:20;68.97;;;63.60;;
11431;SDS011;5772;50.940;6.782;2023-04-07T04:14:46;60.33;;;55.90;;
11431;SDS011;5772;50.940;6.782;2023-04-07T04:17:11;59.90;;;54.33;;
11431;SDS011;5772;50.940;6.782;2023-04-07T04:19:38;62.57;;;57.70;;
11431;SDS011;5772;50.940;6.782;2023-04-07T04:22:03;61.40;;;56.47;;
11431;SDS011;5772;50.940;6.782;2023-04-07T04:24:29;59.70;;;55.33;;
11431;SDS011;5772;50.940;6.782;2023-04-07T04:26:54;59.53;;;54.90;;
11431;SDS011;5772;50.940;6.782;2023-04-07T04:29:19;64.33;;;59.57;;
11431;SDS011;5772;50.940;6.782;2023-04-07T04:31:45;66.37;;;61.77;;
11431;SDS011;5772;50.940;6.782;2023-04-07T04:34:10;72.97;;;67.70;;
11431;SDS011;5772;50.940;6.782;2023-04-07T04:36:37;72.10;;;66.93;;
11431;SDS011;5772;50.940;6.782;2023-04-07T04:39:02;72.20;;;67.17;;
11431;SDS011;5772;50.940;6.782;2023-04-07T04:41:28;67.70;;;63.13;;
11431;SDS011;5772;50.940;6.782;2023-04-07T04:43:53;72.20;;;67.20;;
11431;SDS011;5772;50.940;6.782;2023-04-07T04:46:18;65.67;;;61.10;;
11431;SDS011;5772;50.940;6.782;2023-04-07T04:48:44;69.70;;;65.33;;
11431;SDS011;5772;50.940;6.782;2023-04-07T04:51:09;67.97;;;62.90;;
11431;SDS011;5772;50.940;6.782;2023-04-07T04:53:36;69.00;;;64.20;;
11431;SDS011;5772;50.940;6.782;2023-04-07T04:56:01;65.93;;;61.27;;
11431;SDS011;5772;50.940;6.782;2023-04-07T04:58:26;59.87;;;55.03;;
11431;SDS011;5772;50.940;6.782;2023-04-07T05:00:52;58.43;;;53.43;;
11431;SDS011;5772;50.940;6.782;2023-04-07T05:03:18;52.73;;;48.43;;
11431;SDS011;5772;50.940;6.782;2023-04-07T05:05:46;47.03;;;43.43;;
11431;SDS011;5772;50.940;6.782;2023-04-07T05:08:11;51.17;;;47.17;;
11431;SDS011;5772;50.940;6.782;2023-04-07T05:10:38;50.53;;;46.67;;
11431;SDS011;5772;50.940;6.782;2023-04-07T05:13:03;48.07;;;44.07;;
11431;SDS011;5772;50.940;6.782;2023-04-07T05:15:29;54.43;;;50.70;;
11431;SDS011;5772;50.940;6.782;2023-04-07T05:17:54;54.13;;;49.80;;
11431;SDS011;5772;50.940;6.782;2023-04-07T05:20:19;50.47;;;47.00;;
11431;SDS011;5772;50.940;6.782;2023-04-07T05:22:45;52.23;;;48.07;;
11431;SDS011;5772;50.940;6.782;2023-04-07T05:25:10;50.73;;;46.90;;
11431;SDS011;5772;50.940;6.782;2023-04-07T05:27:37;58.37;;;54.07;;
11431;SDS011;5772;50.940;6.782;2023-04-07T05:30:02;56.77;;;52.97;;
11431;SDS011;5772;50.940;6.782;2023-04-07T05:32:28;62.77;;;58.40;;
11431;SDS011;5772;50.940;6.782;2023-04-07T05:34:54;63.80;;;59.77;;
11431;SDS011;5772;50.940;6.782;2023-04-07T05:37:19;65.77;;;61.33;;
11431;SDS011;5772;50.940;6.782;2023-04-07T05:39:45;64.53;;;60.63;;
11431;SDS011;5772;50.940;6.782;2023-04-07T05:42:10;62.27;;;57.83;;
11431;SDS011;5772;50.940;6.782;2023-04-07T05:44:37;58.13;;;54.90;;
11431;SDS011;5772;50.940;6.782;2023-04-07T05:47:02;58.13;;;54.47;;
11431;SDS011;5772;50.940;6.782;2023-04-07T05:49:27;59.87;;;56.13;;
11431;SDS011;5772;50.940;6.782;2023-04-07T05:51:53;58.40;;;54.80;;
11431;SDS011;5772;50.940;6.782;2023-04-07T05:54:18;53.47;;;49.87;;
11431;SDS011;5772;50.940;6.782;2023-04-07T05:56:43;51.50;;;48.03;;
11431;SDS011;5772;50.940;6.782;2023-04-07T05:59:09;50.90;;;47.40;;
11431;SDS011;5772;50.940;6.782;2023-04-07T06:01:35;46.70;;;43.80;;
11431;SDS011;5772;50.940;6.782;2023-04-07T06:04:01;40.70;;;38.03;;
11431;SDS011;5772;50.940;6.782;2023-04-07T06:06:26;39.83;;;36.97;;
11431;SDS011;5772;50.940;6.782;2023-04-07T06:08:51;37.67;;;34.93;;
11431;SDS011;5772;50.940;6.782;2023-04-07T06:11:17;37.67;;;35.20;;
11431;SDS011;5772;50.940;6.782;2023-04-07T06:13:42;36.57;;;33.70;;
11431;SDS011;5772;50.940;6.782;2023-04-07T06:16:08;37.50;;;34.77;;
11431;SDS011;5772;50.940;6.782;2023-04-07T06:18:34;36.20;;;33.43;;
11431;SDS011;5772;50.940;6.782;2023-04-07T06:21:00;34.73;;;32.03;;
11431;SDS011;5772;50.940;6.782;2023-04-07T06:23:25;36.00;;;33.07;;
11431;SDS011;5772;50.940;6.782;2023-04-07T06:25:50;35.00;;;32.53;;
11431;SDS011;5772;50.940;6.782;2023-04-07T06:28:16;36.37;;;33.70;;
11431;SDS011;5772;50.940;6.782;2023-04-07T06:30:41;35.77;;;33.13;;
11431;SDS011;5772;50.940;6.782;2023-04-07T06:33:07;36.30;;;33.60;;
11431;SDS011;5772;50.940;6.782;2023-04-07T06:35:33;36.97;;;34.50;;
11431;SDS011;5772;50.940;6.782;2023-04-07T06:37:59;35.47;;;33.07;;
11431;SDS011;5772;50.940;6.782;2023-04-07T06:40:24;35.87;;;33.33;;
11431;SDS011;5772;50.940;6.782;2023-04-07T06:42:49;35.33;;;32.90;;
11431;SDS011;5772;50.940;6.782;2023-04-07T06:45:15;35.97;;;33.70;;
11431;SDS011;5772;50.940;6.782;2023-04-07T06:47:40;35.47;;;32.87;;
11431;SDS011;5772;50.940;6.782;2023-04-07T06:50:06;36.90;;;34.40;;
11431;SDS011;5772;50.940;6.782;2023-04-07T06:52:33;35.20;;;32.73;;
11431;SDS011;5772;50.940;6.782;2023-04-07T06:54:59;35.23;;;32.67;;
11431;SDS011;5772;50.940;6.782;2023-04-07T06:57:24;36.33;;;33.83;;
11431;SDS011;5772;50.940;6.782;2023-04-07T06:59:49;34.33;;;31.73;;
11431;SDS011;5772;50.940;6.782;2023-04-07T07:02:15;33.03;;;30.90;;
11431;SDS011;5772;50.940;6.782;2023-04-07T07:04:40;36.33;;;33.80;;
11431;SDS011;5772;50.940;6.782;2023-04-07T07:07:05;34.80;;;32.60;;
11431;SDS011;5772;50.940;6.782;2023-04-07T07:09:32;33.13;;;31.03;;
11431;SDS011;5772;50.940;6.782;2023-04-07T07:11:57;30.70;;;28.73;;
11431;SDS011;5772;50.940;6.782;2023-04-07T07:14:23;32.10;;;30.03;;
11431;SDS011;5772;50.940;6.782;2023-04-07T07:16:48;35.33;;;33.17;;
11431;SDS011;5772;50.940;6.782;2023-04-07T07:19:14;34.87;;;32.53;;
11431;SDS011;5772;50.940;6.782;2023-04-07T07:21:39;34.43;;;32.23;;
11431;SDS011;5772;50.940;6.782;2023-04-07T07:24:05;33.13;;;31.07;;
11431;SDS011;5772;50.940;6.782;2023-04-07T07:26:31;32.63;;;30.63;;
11431;SDS011;5772;50.940;6.782;2023-04-07T07:28:57;31.53;;;29.67;;
11431;SDS011;5772;50.940;6.782;2023-04-07T07:31:22;34.23;;;31.83;;
11431;SDS011;5772;50.940;6.782;2023-04-07T07:33:47;30.17;;;28.10;;
11431;SDS011;5772;50.940;6.782;2023-04-07T07:36:13;30.23;;;28.50;;
11431;SDS011;5772;50.940;6.782;2023-04-07T07:38:38;31.77;;;29.83;;
11431;SDS011;5772;50.940;6.782;2023-04-07T07:41:04;31.63;;;29.83;;
11431;SDS011;5772;50.940;6.782;2023-04-07T07:43:31;31.20;;;29.47;;
11431;SDS011;5772;50.940;6.782;2023-04-07T07:45:57;29.67;;;27.80;;
11431;SDS011;5772;50.940;6.782;2023-04-07T07:48:22;31.73;;;29.57;;
11431;SDS011;5772;50.940;6.782;2023-04-07T07:50:47;31.60;;;29.83;;
11431;SDS011;5772;50.940;6.782;2023-04-07T07:53:13;32.00;;;30.30;;
11431;SDS011;5772;50.940;6.782;2023-04-07T07:55:38;31.97;;;30.07;;
11431;SDS011;5772;50.940;6.782;2023-04-07T07:58:04;31.83;;;29.83;;
11431;SDS011;5772;50.940;6.782;2023-04-07T08:00:30;30.03;;;28.20;;
11431;SDS011;5772;50.940;6.782;2023-04-07T08:02:56;31.23;;;29.43;;
11431;SDS011;5772;50.940;6.782;2023-04-07T08:05:21;29.63;;;28.03;;
11431;SDS011;5772;50.940;6.782;2023-04-07T08:07:46;31.27;;;29.23;;
11431;SDS011;5772;50.940;6.782;2023-04-07T08:10:12;32.43;;;30.57;;
11431;SDS011;5772;50.940;6.782;2023-04-07T08:12:37;28.77;;;27.23;;
11431;SDS011;5772;50.940;6.782;2023-04-07T08:15:03;30.67;;;29.00;;
11431;SDS011;5772;50.940;6.782;2023-04-07T08:17:30;32.03;;;29.73;;
11431;SDS011;5772;50.940;6.782;2023-04-07T08:19:56;30.83;;;28.90;;
11431;SDS011;5772;50.940;6.782;2023-04-07T08:22:21;29.47;;;27.57;;
11431;SDS011;5772;50.940;6.782;2023-04-07T08:24:47;31.27;;;29.33;;
11431;SDS011;5772;50.940;6.782;2023-04-07T08:27:12;30.77;;;28.90;;
11431;SDS011;5772;50.940;6.782;2023-04-07T08:29:37;29.87;;;28.27;;
11431;SDS011;5772;50.940;6.782;2023-04-07T08:32:03;30.63;;;29.03;;
11431;SDS011;5772;50.940;6.782;2023-04-07T08:34:30;30.83;;;29.17;;
11431;SDS011;5772;50.940;6.782;2023-04-07T08:36:55;31.63;;;29.83;;
11431;SDS011;5772;50.940;6.782;2023-04-07T08:39:20;31.93;;;30.00;;
11431;SDS011;5772;50.940;6.782;2023-04-07T08:41:46;32.33;;;29.70;;
11431;SDS011;5772;50.940;6.782;2023-04-07T08:44:12;34.17;;;31.87;;
11431;SDS011;5772;50.940;6.782;2023-04-07T08:46:39;34.73;;;31.87;;
11431;SDS011;5772;50.940;6.782;2023-04-07T08:49:07;32.27;;;30.17;;
11431;SDS011;5772;50.940;6.782;2023-04-07T08:51:34;36.17;;;33.60;;
11431;SDS011;5772;50.940;6.782;2023-04-07T08:54:03;38.73;;;35.83;;
11431;SDS011;5772;50.940;6.782;2023-04-07T08:56:30;36.07;;;33.70;;
11431;SDS011;5772;50.940;6.782;2023-04-07T08:58:56;37.33;;;35.30;;
11431;SDS011;5772;50.940;6.782;2023-04-07T09:01:21;33.60;;;31.40;;
11431;SDS011;5772;50.940;6.782;2023-04-07T09:03:47;33.67;;;31.77;;
11431;SDS011;5772;50.940;6.782;2023-04-07T09:06:13;35.07;;;32.93;;
11431;SDS011;5772;50.940;6.782;2023-04-07T09:08:40;36.43;;;34.53;;
11431;SDS011;5772;50.940;6.782;2023-04-07T09:11:05;34.37;;;32.63;;
11431;SDS011;5772;50.940;6.782;2023-04-07T09:13:31;31.87;;;30.13;;
11431;SDS011;5772;50.940;6.782;2023-04-07T09:15:56;30.17;;;28.47;;
11431;SDS011;5772;50.940;6.782;2023-04-07T09:18:22;31.53;;;29.83;;
11431;SDS011;5772;50.940;6.782;2023-04-07T09:20:54;32.37;;;30.60;;
11431;SDS011;5772;50.940;6.782;2023-04-07T09:23:29;32.87;;;30.83;;
11431;SDS011;5772;50.940;6.782;2023-04-07T09:25:57;29.90;;;28.20;;
11431;SDS011;5772;50.940;6.782;2023-04-07T09:28:22;30.70;;;29.00;;
11431;SDS011;5772;50.940;6.782;2023-04-07T09:30:51;33.50;;;31.53;;
11431;SDS011;5772;50.940;6.782;2023-04-07T09:33:17;31.97;;;30.23;;
11431;SDS011;5772;50.940;6.782;2023-04-07T09:35:51;30.57;;;28.87;;
11431;SDS011;5772;50.940;6.782;2023-04-07T09:38:16;34.63;;;31.67;;
11431;SDS011;5772;50.940;6.782;2023-04-07T09:40:41;32.40;;;30.37;;
11431;SDS011;5772;50.940;6.782;2023-04-07T09:43:13;32.87;;;30.67;;
11431;SDS011;5772;50.940;6.782;2023-04-07T09:45:39;31.97;;;30.00;;
11431;SDS011;5772;50.940;6.782;2023-04-07T09:48:05;35.87;;;33.10;;
11431;SDS011;5772;50.940;6.782;2023-04-07T09:50:31;38.17;;;35.33;;
11431;SDS011;5772;50.940;6.782;2023-04-07T09:52:56;37.83;;;35.63;;
11431;SDS011;5772;50.940;6.782;2023-04-07T09:55:22;37.27;;;34.80;;
11431;SDS011;5772;50.940;6.782;2023-04-07T09:57:48;39.30;;;36.37;;
11431;SDS011;5772;50.940;6.782;2023-04-07T10:00:15;35.03;;;32.33;;
11431;SDS011;5772;50.940;6.782;2023-04-07T10:02:41;35.03;;;32.73;;
11431;SDS011;5772;50.940;6.782;2023-04-07T10:05:07;36.77;;;34.07;;
11431;SDS011;5772;50.940;6.782;2023-04-07T10:07:32;34.73;;;32.23;;
11431;SDS011;5772;50.940;6.782;2023-04-07T10:09:59;32.20;;;29.30;;
11431;SDS011;5772;50.940;6.782;2023-04-07T10:12:24;32.90;;;30.63;;
11431;SDS011;5772;50.940;6.782;2023-04-07T10:14:50;32.90;;;30.53;;
11431;SDS011;5772;50.940;6.782;2023-04-07T10:17:17;33.57;;;30.57;;
11431;SDS011;5772;50.940;6.782;2023-04-07T10:19:43;33.47;;;30.90;;
11431;SDS011;5772;50.940;6.782;2023-04-07T10:22:09;33.67;;;31.17;;
11431;SDS011;5772;50.940;6.782;2023-04-07T10:27:20;32.30;;;29.93;;
11431;SDS011;5772;50.940;6.782;2023-04-07T10:29:48;34.93;;;32.00;;
11431;SDS011;5772;50.940;6.782;2023-04-07T10:32:14;38.27;;;35.87;;
11431;SDS011;5772;50.940;6.782;2023-04-07T10:37:31;38.50;;;35.50;;
11431;SDS011;5772;50.940;6.782;2023-04-07T10:42:53;37.67;;;34.77;;
11431;SDS011;5772;50.940;6.782;2023-04-07T10:45:20;38.60;;;35.87;;
11431;SDS011;5772;50.940;6.782;2023-04-07T10:48:21;38.10;;;35.17;;
11431;SDS011;5772;50.940;6.782;2023-04-07T10:51:10;37.73;;;35.07;;
11431;SDS011;5772;50.940;6.782;2023-04-07T10:53:42;37.93;;;35.33;;
11431;SDS011;5772;50.940;6.782;2023-04-07T10:59:30;36.50;;;34.13;;
11431;SDS011;5772;50.940;6.782;2023-04-07T11:02:09;36.57;;;34.47;;
11431;SDS011;5772;50.940;6.782;2023-04-07T11:04:54;36.87;;;34.00;;
11431;SDS011;5772;50.940;6.782;2023-04-07T11:07:20;37.40;;;34.43;;
11431;SDS011;5772;50.940;6.782;2023-04-07T11:10:12;35.53;;;33.13;;
11431;SDS011;5772;50.940;6.782;2023-04-07T11:12:38;37.07;;;34.53;;
11431;SDS011;5772;50.940;6.782;2023-04-07T11:15:15;37.10;;;34.50;;
11431;SDS011;5772;50.940;6.782;2023-04-07T11:17:42;36.73;;;34.37;;
11431;SDS011;5772;50.940;6.782;2023-04-07T11:20:08;37.67;;;34.97;;
11431;SDS011;5772;50.940;6.782;2023-04-07T11:22:34;36.30;;;34.10;;
11431;SDS011;5772;50.940;6.782;2023-04-07T11:24:59;36.93;;;34.13;;
11431;SDS011;5772;50.940;6.782;2023-04-07T11:27:25;39.00;;;36.03;;
11431;SDS011;5772;50.940;6.782;2023-04-07T11:29:50;38.17;;;35.57;;
11431;SDS011;5772;50.940;6.782;2023-04-07T11:32:21;34.97;;;32.60;;
11431;SDS011;5772;50.940;6.782;2023-04-07T11:34:50;33.83;;;31.53;;
11431;SDS011;5772;50.940;6.782;2023-04-07T11:37:19;30.90;;;29.00;;
11431;SDS011;5772;50.940;6.782;2023-04-07T11:39:50;31.37;;;29.23;;
11431;SDS011;5772;50.940;6.782;2023-04-07T11:42:15;29.67;;;27.33;;
11431;SDS011;5772;50.940;6.782;2023-04-07T11:44:43;29.47;;;27.03;;
11431;SDS011;5772;50.940;6.782;2023-04-07T11:47:09;30.87;;;28.80;;
11431;SDS011;5772;50.940;6.782;2023-04-07T11:49:34;31.13;;;29.13;;
11431;SDS011;5772;50.940;6.782;2023-04-07T11:52:10;29.40;;;27.50;;
11431;SDS011;5772;50.940;6.782;2023-04-07T11:54:39;31.13;;;28.43;;
11431;SDS011;5772;50.940;6.782;2023-04-07T11:57:07;29.87;;;27.63;;
11431;SDS011;5772;50.940;6.782;2023-04-07T11:59:33;30.63;;;28.77;;
11431;SDS011;5772;50.940;6.782;2023-04-07T12:01:58;30.20;;;28.30;;
11431;SDS011;5772;50.940;6.782;2023-04-07T12:04:23;30.50;;;28.57;;
11431;SDS011;5772;50.940;6.782;2023-04-07T12:06:49;31.53;;;29.30;;
11431;SDS011;5772;50.940;6.782;2023-04-07T12:09:28;30.23;;;28.23;;
11431;SDS011;5772;50.940;6.782;2023-04-07T12:11:55;29.97;;;27.77;;
11431;SDS011;5772;50.940;6.782;2023-04-07T12:14:20;30.33;;;28.20;;
11431;SDS011;5772;50.940;6.782;2023-04-07T12:16:46;29.40;;;27.60;;
11431;SDS011;5772;50.940;6.782;2023-04-07T12:19:11;29.87;;;27.77;;
11431;SDS011;5772;50.940;6.782;2023-04-07T12:21:37;30.50;;;28.40;;
11431;SDS011;5772;50.940;6.782;2023-04-07T12:24:02;32.27;;;29.87;;
11431;SDS011;5772;50.940;6.782;2023-04-07T12:26:29;29.70;;;27.07;;
11431;SDS011;5772;50.940;6.782;2023-04-07T12:28:54;30.67;;;27.93;;
11431;SDS011;5772;50.940;6.782;2023-04-07T12:31:20;28.93;;;26.63;;
11431;SDS011;5772;50.940;6.782;2023-04-07T12:33:45;28.83;;;26.83;;
11431;SDS011;5772;50.940;6.782;2023-04-07T12:36:10;29.63;;;27.60;;
11431;SDS011;5772;50.940;6.782;2023-04-07T12:38:36;32.03;;;28.93;;
11431;SDS011;5772;50.940;6.782;2023-04-07T12:41:01;30.60;;;28.37;;
11431;SDS011;5772;50.940;6.782;2023-04-07T12:43:28;31.60;;;29.27;;
11431;SDS011;5772;50.940;6.782;2023-04-07T12:45:53;29.83;;;27.93;;
11431;SDS011;5772;50.940;6.782;2023-04-07T12:48:18;31.37;;;28.93;;
11431;SDS011;5772;50.940;6.782;2023-04-07T12:50:44;32.03;;;29.57;;
11431;SDS011;5772;50.940;6.782;2023-04-07T12:53:09;28.77;;;26.57;;
11431;SDS011;5772;50.940;6.782;2023-04-07T12:55:35;34.07;;;31.57;;
11431;SDS011;5772;50.940;6.782;2023-04-07T12:58:00;36.87;;;34.27;;
11431;SDS011;5772;50.940;6.782;2023-04-07T13:00:27;38.90;;;35.70;;
11431;SDS011;5772;50.940;6.782;2023-04-07T13:02:52;37.67;;;34.77;;
11431;SDS011;5772;50.940;6.782;2023-04-07T13:05:17;35.13;;;32.77;;
11431;SDS011;5772;50.940;6.782;2023-04-07T13:07:43;32.17;;;30.03;;
11431;SDS011;5772;50.940;6.782;2023-04-07T13:10:08;31.67;;;28.93;;
11431;SDS011;5772;50.940;6.782;2023-04-07T13:12:34;34.47;;;31.53;;
11431;SDS011;5772;50.940;6.782;2023-04-07T13:15:00;35.73;;;33.33;;
11431;SDS011;5772;50.940;6.782;2023-04-07T13:17:26;33.50;;;30.73;;
11431;SDS011;5772;50.940;6.782;2023-04-07T13:19:52;31.90;;;29.53;;
11431;SDS011;5772;50.940;6.782;2023-04-07T13:22:17;31.43;;;29.07;;
11431;SDS011;5772;50.940;6.782;2023-04-07T13:24:43;31.00;;;29.00;;
11431;SDS011;5772;50.940;6.782;2023-04-07T13:27:08;32.43;;;30.23;;
11431;SDS011;5772;50.940;6.782;2023-04-07T13:29:33;29.70;;;27.37;;
11431;SDS011;5772;50.940;6.782;2023-04-07T13:32:03;30.60;;;28.20;;
11431;SDS011;5772;50.940;6.782;2023-04-07T13:34:30;31.20;;;28.60;;
11431;SDS011;5772;50.940;6.782;2023-04-07T13:36:55;28.97;;;27.10;;
11431;SDS011;5772;50.940;6.782;2023-04-07T13:39:21;32.30;;;29.23;;
11431;SDS011;5772;50.940;6.782;2023-04-07T13:41:46;30.90;;;28.23;;
11431;SDS011;5772;50.940;6.782;2023-04-07T13:44:11;29.93;;;27.40;;
11431;SDS011;5772;50.940;6.782;2023-04-07T13:46:37;32.07;;;29.93;;
11431;SDS011;5772;50.940;6.782;2023-04-07T13:49:02;29.80;;;27.50;;
11431;SDS011;5772;50.940;6.782;2023-04-07T13:51:29;29.30;;;27.33;;
11431;SDS011;5772;50.940;6.782;2023-04-07T13:53:54;29.87;;;27.97;;
11431;SDS011;5772;50.940;6.782;2023-04-07T13:56:20;30.00;;;28.20;;
11431;SDS011;5772;50.940;6.782;2023-04-07T13:58:45;29.53;;;27.47;;
11431;SDS011;5772;50.940;6.782;2023-04-07T14:01:10;29.17;;;27.47;;
11431;SDS011;5772;50.940;6.782;2023-04-07T14:03:36;33.63;;;30.97;;
11431;SDS011;5772;50.940;6.782;2023-04-07T14:06:01;30.90;;;29.00;;
11431;SDS011;5772;50.940;6.782;2023-04-07T14:08:28;31.93;;;30.07;;
11431;SDS011;5772;50.940;6.782;2023-04-07T14:10:53;30.43;;;28.63;;
11431;SDS011;5772;50.940;6.782;2023-04-07T14:13:20;31.57;;;29.47;;
11431;SDS011;5772;50.940;6.782;2023-04-07T14:15:45;31.80;;;29.70;;
11431;SDS011;5772;50.940;6.782;2023-04-07T14:18:11;31.67;;;29.73;;
11431;SDS011;5772;50.940;6.782;2023-04-07T14:20:36;31.00;;;29.00;;
11431;SDS011;5772;50.940;6.782;2023-04-07T14:23:01;31.87;;;29.87;;
11431;SDS011;5772;50.940;6.782;2023-04-07T14:25:28;30.10;;;28.00;;
11431;SDS011;5772;50.940;6.782;2023-04-07T14:27:54;31.87;;;29.93;;
11431;SDS011;5772;50.940;6.782;2023-04-07T14:30:19;28.13;;;26.27;;
11431;SDS011;5772;50.940;6.782;2023-04-07T14:32:45;29.13;;;27.17;;
11431;SDS011;5772;50.940;6.782;2023-04-07T14:35:10;32.80;;;30.60;;
11431;SDS011;5772;50.940;6.782;2023-04-07T14:37:35;27.70;;;26.20;;
11431;SDS011;5772;50.940;6.782;2023-04-07T14:40:01;28.97;;;27.00;;
11431;SDS011;5772;50.940;6.782;2023-04-07T14:42:27;27.90;;;26.27;;